sensor_id;sensor_type;location;lat;lon;timestamp;P1;durP1;ratioP1;P2;durP2;ratioP2
25715;SDS011;13573;50.936;4.328;2023-02-20T00:02:14;30.57;;;14.70;;
25715;SDS011;13573;50.936;4.328;2023-02-20T00:04:41;34.83;;;14.73;;
25715;SDS011;13573;50.936;4.328;2023-02-20T00:07:08;33.80;;;14.43;;
25715;SDS011;13573;50.936;4.328;2023-02-20T00:09:34;39.63;;;14.80;;
25715;SDS011;13573;50.936;4.328;2023-02-20T00:12:01;31.27;;;15.87;;
25715;SDS011;13573;50.936;4.328;2023-02-20T00:14:28;31.77;;;14.87;;
25715;SDS011;13573;50.936;4.328;2023-02-20T00:16:54;29.70;;;14.33;;
25715;SDS011;13573;50.936;4.328;2023-02-20T00:19:21;35.67;;;14.63;;
25715;SDS011;13573;50.936;4.328;2023-02-20T00:21:48;32.00;;;14.10;;
25715;SDS011;13573;50.936;4.328;2023-02-20T00:24:17;26.63;;;13.90;;
25715;SDS011;13573;50.936;4.328;2023-02-20T00:26:47;28.60;;;13.23;;
25715;SDS011;13573;50.936;4.328;2023-02-20T00:29:16;30.40;;;13.80;;
25715;SDS011;13573;50.936;4.328;2023-02-20T00:31:49;35.23;;;15.10;;
25715;SDS011;13573;50.936;4.328;2023-02-20T00:34:16;35.77;;;14.97;;
25715;SDS011;13573;50.936;4.328;2023-02-20T00:36:43;41.37;;;14.77;;
25715;SDS011;13573;50.936;4.328;2023-02-20T00:39:10;37.13;;;15.40;;
25715;SDS011;13573;50.936;4.328;2023-02-20T00:41:37;34.27;;;14.90;;
25715;SDS011;13573;50.936;4.328;2023-02-20T00:44:03;37.30;;;16.53;;
25715;SDS011;13573;50.936;4.328;2023-02-20T00:46:30;41.97;;;17.50;;
25715;SDS011;13573;50.936;4.328;2023-02-20T00:48:57;36.27;;;15.80;;
25715;SDS011;13573;50.936;4.328;2023-02-20T00:51:24;40.07;;;16.80;;
25715;SDS011;13573;50.936;4.328;2023-02-20T00:53:52;35.43;;;16.80;;
25715;SDS011;13573;50.936;4.328;2023-02-20T00:56:18;50.23;;;17.77;;
25715;SDS011;13573;50.936;4.328;2023-02-20T00:58:45;38.63;;;17.13;;
25715;SDS011;13573;50.936;4.328;2023-02-20T01:01:11;41.23;;;19.47;;
25715;SDS011;13573;50.936;4.328;2023-02-20T01:03:39;47.97;;;19.90;;
25715;SDS011;13573;50.936;4.328;2023-02-20T01:06:07;48.03;;;20.10;;
25715;SDS011;13573;50.936;4.328;2023-02-20T01:08:34;47.47;;;20.30;;
25715;SDS011;13573;50.936;4.328;2023-02-20T01:11:01;46.43;;;20.20;;
25715;SDS011;13573;50.936;4.328;2023-02-20T01:13:28;64.80;;;24.43;;
25715;SDS011;13573;50.936;4.328;2023-02-20T01:15:54;51.30;;;24.70;;
25715;SDS011;13573;50.936;4.328;2023-02-20T01:18:21;50.00;;;23.20;;
25715;SDS011;13573;50.936;4.328;2023-02-20T01:20:48;51.50;;;22.23;;
25715;SDS011;13573;50.936;4.328;2023-02-20T01:23:14;55.17;;;23.10;;
25715;SDS011;13573;50.936;4.328;2023-02-20T01:25:41;45.10;;;23.80;;
25715;SDS011;13573;50.936;4.328;2023-02-20T01:28:08;55.30;;;24.33;;
25715;SDS011;13573;50.936;4.328;2023-02-20T01:30:34;45.73;;;22.67;;
25715;SDS011;13573;50.936;4.328;2023-02-20T01:33:02;48.20;;;23.37;;
25715;SDS011;13573;50.936;4.328;2023-02-20T01:35:29;48.30;;;22.57;;
25715;SDS011;13573;50.936;4.328;2023-02-20T01:37:57;50.77;;;22.90;;
25715;SDS011;13573;50.936;4.328;2023-02-20T01:40:24;47.73;;;23.47;;
25715;SDS011;13573;50.936;4.328;2023-02-20T01:42:53;51.00;;;22.80;;
25715;SDS011;13573;50.936;4.328;2023-02-20T01:45:28;54.27;;;24.47;;
25715;SDS011;13573;50.936;4.328;2023-02-20T01:48:00;45.73;;;22.77;;
25715;SDS011;13573;50.936;4.328;2023-02-20T01:50:29;46.20;;;22.80;;
25715;SDS011;13573;50.936;4.328;2023-02-20T01:53:04;49.33;;;21.07;;
25715;SDS011;13573;50.936;4.328;2023-02-20T01:55:34;45.60;;;22.00;;
25715;SDS011;13573;50.936;4.328;2023-02-20T01:58:07;41.53;;;21.70;;
25715;SDS011;13573;50.936;4.328;2023-02-20T02:00:37;44.03;;;20.80;;
25715;SDS011;13573;50.936;4.328;2023-02-20T02:03:07;47.27;;;20.67;;
25715;SDS011;13573;50.936;4.328;2023-02-20T02:05:36;49.10;;;19.90;;
25715;SDS011;13573;50.936;4.328;2023-02-20T02:08:06;39.10;;;18.83;;
25715;SDS011;13573;50.936;4.328;2023-02-20T02:10:36;44.67;;;18.40;;
25715;SDS011;13573;50.936;4.328;2023-02-20T02:13:05;38.53;;;18.80;;
25715;SDS011;13573;50.936;4.328;2023-02-20T02:15:32;45.40;;;17.80;;
25715;SDS011;13573;50.936;4.328;2023-02-20T02:18:03;43.70;;;17.40;;
25715;SDS011;13573;50.936;4.328;2023-02-20T02:20:47;42.87;;;16.40;;
25715;SDS011;13573;50.936;4.328;2023-02-20T02:23:36;48.50;;;18.33;;
25715;SDS011;13573;50.936;4.328;2023-02-20T02:32:03;40.40;;;18.63;;
25715;SDS011;13573;50.936;4.328;2023-02-20T02:37:18;54.07;;;19.23;;
25715;SDS011;13573;50.936;4.328;2023-02-20T02:40:11;50.70;;;21.80;;
25715;SDS011;13573;50.936;4.328;2023-02-20T02:42:40;58.80;;;22.13;;
25715;SDS011;13573;50.936;4.328;2023-02-20T02:45:16;64.13;;;22.37;;
25715;SDS011;13573;50.936;4.328;2023-02-20T02:47:48;59.07;;;22.20;;
25715;SDS011;13573;50.936;4.328;2023-02-20T02:50:22;56.10;;;23.07;;
25715;SDS011;13573;50.936;4.328;2023-02-20T02:52:52;59.47;;;22.27;;
25715;SDS011;13573;50.936;4.328;2023-02-20T02:55:20;61.40;;;22.73;;
25715;SDS011;13573;50.936;4.328;2023-02-20T02:57:50;55.20;;;21.73;;
25715;SDS011;13573;50.936;4.328;2023-02-20T03:00:19;58.10;;;22.17;;
25715;SDS011;13573;50.936;4.328;2023-02-20T03:03:08;54.67;;;22.73;;
25715;SDS011;13573;50.936;4.328;2023-02-20T03:05:39;57.63;;;23.93;;
25715;SDS011;13573;50.936;4.328;2023-02-20T03:08:41;57.07;;;22.63;;
25715;SDS011;13573;50.936;4.328;2023-02-20T03:11:20;52.57;;;22.13;;
25715;SDS011;13573;50.936;4.328;2023-02-20T03:13:52;54.70;;;22.47;;
25715;SDS011;13573;50.936;4.328;2023-02-20T03:16:40;50.53;;;20.83;;
25715;SDS011;13573;50.936;4.328;2023-02-20T03:19:14;58.20;;;21.03;;
25715;SDS011;13573;50.936;4.328;2023-02-20T03:21:45;50.77;;;19.57;;
25715;SDS011;13573;50.936;4.328;2023-02-20T03:24:14;50.27;;;20.77;;
25715;SDS011;13573;50.936;4.328;2023-02-20T03:26:44;59.57;;;23.40;;
25715;SDS011;13573;50.936;4.328;2023-02-20T03:29:16;60.67;;;22.77;;
25715;SDS011;13573;50.936;4.328;2023-02-20T03:31:49;53.57;;;20.70;;
25715;SDS011;13573;50.936;4.328;2023-02-20T03:34:24;59.53;;;22.63;;
25715;SDS011;13573;50.936;4.328;2023-02-20T03:37:00;49.60;;;20.70;;
25715;SDS011;13573;50.936;4.328;2023-02-20T03:39:37;52.33;;;20.70;;
25715;SDS011;13573;50.936;4.328;2023-02-20T03:42:12;44.57;;;19.57;;
25715;SDS011;13573;50.936;4.328;2023-02-20T03:44:46;42.43;;;18.50;;
25715;SDS011;13573;50.936;4.328;2023-02-20T03:47:14;57.40;;;19.70;;
25715;SDS011;13573;50.936;4.328;2023-02-20T03:49:44;46.30;;;16.53;;
25715;SDS011;13573;50.936;4.328;2023-02-20T03:52:14;46.10;;;16.23;;
25715;SDS011;13573;50.936;4.328;2023-02-20T03:54:41;34.10;;;16.37;;
25715;SDS011;13573;50.936;4.328;2023-02-20T03:57:09;40.03;;;16.10;;
25715;SDS011;13573;50.936;4.328;2023-02-20T03:59:43;45.40;;;16.57;;
25715;SDS011;13573;50.936;4.328;2023-02-20T04:02:17;41.37;;;16.43;;
25715;SDS011;13573;50.936;4.328;2023-02-20T04:04:47;39.93;;;14.77;;
25715;SDS011;13573;50.936;4.328;2023-02-20T04:07:19;38.70;;;14.93;;
25715;SDS011;13573;50.936;4.328;2023-02-20T04:09:48;36.07;;;13.53;;
25715;SDS011;13573;50.936;4.328;2023-02-20T04:12:18;40.97;;;15.33;;
25715;SDS011;13573;50.936;4.328;2023-02-20T04:14:48;38.27;;;13.93;;
25715;SDS011;13573;50.936;4.328;2023-02-20T04:17:17;35.33;;;13.80;;
25715;SDS011;13573;50.936;4.328;2023-02-20T04:19:45;36.63;;;15.07;;
25715;SDS011;13573;50.936;4.328;2023-02-20T04:22:14;40.67;;;15.47;;
25715;SDS011;13573;50.936;4.328;2023-02-20T04:24:48;32.70;;;13.60;;
25715;SDS011;13573;50.936;4.328;2023-02-20T04:27:19;35.97;;;14.00;;
25715;SDS011;13573;50.936;4.328;2023-02-20T04:29:46;39.63;;;14.37;;
25715;SDS011;13573;50.936;4.328;2023-02-20T04:32:13;37.90;;;15.07;;
25715;SDS011;13573;50.936;4.328;2023-02-20T04:34:40;41.00;;;14.70;;
25715;SDS011;13573;50.936;4.328;2023-02-20T04:37:08;37.87;;;14.97;;
25715;SDS011;13573;50.936;4.328;2023-02-20T04:39:38;41.97;;;16.20;;
25715;SDS011;13573;50.936;4.328;2023-02-20T04:42:04;30.03;;;14.40;;
25715;SDS011;13573;50.936;4.328;2023-02-20T04:44:31;35.20;;;15.27;;
25715;SDS011;13573;50.936;4.328;2023-02-20T04:47:00;47.37;;;17.00;;
25715;SDS011;13573;50.936;4.328;2023-02-20T04:49:29;35.80;;;14.70;;
25715;SDS011;13573;50.936;4.328;2023-02-20T04:51:56;34.80;;;14.43;;
25715;SDS011;13573;50.936;4.328;2023-02-20T04:54:23;39.43;;;17.10;;
25715;SDS011;13573;50.936;4.328;2023-02-20T04:56:50;33.27;;;14.20;;
25715;SDS011;13573;50.936;4.328;2023-02-20T04:59:17;39.40;;;15.63;;
25715;SDS011;13573;50.936;4.328;2023-02-20T05:01:44;47.27;;;15.90;;
25715;SDS011;13573;50.936;4.328;2023-02-20T05:04:14;34.37;;;14.30;;
25715;SDS011;13573;50.936;4.328;2023-02-20T05:06:43;37.37;;;15.87;;
25715;SDS011;13573;50.936;4.328;2023-02-20T05:09:12;40.20;;;17.40;;
25715;SDS011;13573;50.936;4.328;2023-02-20T05:11:39;41.87;;;16.80;;
25715;SDS011;13573;50.936;4.328;2023-02-20T05:14:06;45.53;;;18.70;;
25715;SDS011;13573;50.936;4.328;2023-02-20T05:16:33;47.37;;;18.33;;
25715;SDS011;13573;50.936;4.328;2023-02-20T05:19:01;46.33;;;18.00;;
25715;SDS011;13573;50.936;4.328;2023-02-20T05:21:28;34.97;;;15.03;;
25715;SDS011;13573;50.936;4.328;2023-02-20T05:24:01;32.47;;;15.33;;
25715;SDS011;13573;50.936;4.328;2023-02-20T05:26:28;29.90;;;13.53;;
25715;SDS011;13573;50.936;4.328;2023-02-20T05:28:54;41.27;;;14.70;;
25715;SDS011;13573;50.936;4.328;2023-02-20T05:31:21;37.27;;;14.53;;
25715;SDS011;13573;50.936;4.328;2023-02-20T05:33:47;33.07;;;15.17;;
25715;SDS011;13573;50.936;4.328;2023-02-20T05:36:15;47.30;;;16.50;;
25715;SDS011;13573;50.936;4.328;2023-02-20T05:38:42;38.30;;;16.40;;
25715;SDS011;13573;50.936;4.328;2023-02-20T05:41:10;37.00;;;14.80;;
25715;SDS011;13573;50.936;4.328;2023-02-20T05:43:37;35.33;;;16.03;;
25715;SDS011;13573;50.936;4.328;2023-02-20T05:46:04;31.37;;;15.60;;
25715;SDS011;13573;50.936;4.328;2023-02-20T05:48:31;39.80;;;16.23;;
25715;SDS011;13573;50.936;4.328;2023-02-20T05:50:58;35.00;;;16.53;;
25715;SDS011;13573;50.936;4.328;2023-02-20T05:53:26;35.57;;;16.60;;
25715;SDS011;13573;50.936;4.328;2023-02-20T05:55:54;35.00;;;15.27;;
25715;SDS011;13573;50.936;4.328;2023-02-20T05:58:21;34.37;;;15.20;;
25715;SDS011;13573;50.936;4.328;2023-02-20T06:00:50;34.33;;;15.07;;
25715;SDS011;13573;50.936;4.328;2023-02-20T06:03:16;35.50;;;14.90;;
25715;SDS011;13573;50.936;4.328;2023-02-20T06:05:43;29.33;;;14.27;;
25715;SDS011;13573;50.936;4.328;2023-02-20T06:08:10;28.63;;;13.83;;
25715;SDS011;13573;50.936;4.328;2023-02-20T06:10:37;39.73;;;16.10;;
25715;SDS011;13573;50.936;4.328;2023-02-20T06:13:04;40.50;;;15.50;;
25715;SDS011;13573;50.936;4.328;2023-02-20T06:15:30;40.90;;;17.00;;
25715;SDS011;13573;50.936;4.328;2023-02-20T06:17:57;38.00;;;16.50;;
25715;SDS011;13573;50.936;4.328;2023-02-20T06:20:24;36.77;;;16.40;;
25715;SDS011;13573;50.936;4.328;2023-02-20T06:22:51;37.47;;;16.50;;
25715;SDS011;13573;50.936;4.328;2023-02-20T06:25:18;36.23;;;14.93;;
25715;SDS011;13573;50.936;4.328;2023-02-20T06:27:45;39.50;;;16.50;;
25715;SDS011;13573;50.936;4.328;2023-02-20T06:30:12;35.60;;;14.50;;
25715;SDS011;13573;50.936;4.328;2023-02-20T06:32:39;37.27;;;15.43;;
25715;SDS011;13573;50.936;4.328;2023-02-20T06:35:06;39.60;;;15.70;;
25715;SDS011;13573;50.936;4.328;2023-02-20T06:37:33;40.77;;;14.97;;
25715;SDS011;13573;50.936;4.328;2023-02-20T06:39:59;38.23;;;16.37;;
25715;SDS011;13573;50.936;4.328;2023-02-20T06:42:26;47.73;;;17.87;;
25715;SDS011;13573;50.936;4.328;2023-02-20T06:44:53;31.87;;;14.93;;
25715;SDS011;13573;50.936;4.328;2023-02-20T06:47:20;33.83;;;15.33;;
25715;SDS011;13573;50.936;4.328;2023-02-20T06:49:47;28.37;;;13.20;;
25715;SDS011;13573;50.936;4.328;2023-02-20T06:52:15;30.73;;;11.67;;
25715;SDS011;13573;50.936;4.328;2023-02-20T06:54:43;26.73;;;10.50;;
25715;SDS011;13573;50.936;4.328;2023-02-20T06:57:10;21.77;;;10.60;;
25715;SDS011;13573;50.936;4.328;2023-02-20T06:59:36;25.33;;;10.90;;
25715;SDS011;13573;50.936;4.328;2023-02-20T07:02:08;27.73;;;10.73;;
25715;SDS011;13573;50.936;4.328;2023-02-20T07:04:37;24.73;;;11.47;;
25715;SDS011;13573;50.936;4.328;2023-02-20T07:07:03;35.23;;;11.83;;
25715;SDS011;13573;50.936;4.328;2023-02-20T07:09:30;31.83;;;11.77;;
25715;SDS011;13573;50.936;4.328;2023-02-20T07:11:57;26.23;;;11.23;;
25715;SDS011;13573;50.936;4.328;2023-02-20T07:14:25;23.67;;;10.87;;
25715;SDS011;13573;50.936;4.328;2023-02-20T07:16:51;27.57;;;11.57;;
25715;SDS011;13573;50.936;4.328;2023-02-20T07:19:19;25.73;;;11.60;;
25715;SDS011;13573;50.936;4.328;2023-02-20T07:21:47;27.93;;;11.20;;
25715;SDS011;13573;50.936;4.328;2023-02-20T07:24:15;29.30;;;11.70;;
25715;SDS011;13573;50.936;4.328;2023-02-20T07:26:42;22.30;;;10.40;;
25715;SDS011;13573;50.936;4.328;2023-02-20T07:29:10;24.40;;;10.40;;
25715;SDS011;13573;50.936;4.328;2023-02-20T07:31:37;29.00;;;10.73;;
25715;SDS011;13573;50.936;4.328;2023-02-20T07:34:04;25.50;;;10.70;;
25715;SDS011;13573;50.936;4.328;2023-02-20T07:36:30;22.70;;;10.17;;
25715;SDS011;13573;50.936;4.328;2023-02-20T07:38:58;22.50;;;10.97;;
25715;SDS011;13573;50.936;4.328;2023-02-20T07:41:27;28.53;;;10.53;;
25715;SDS011;13573;50.936;4.328;2023-02-20T07:43:57;24.67;;;10.40;;
25715;SDS011;13573;50.936;4.328;2023-02-20T07:46:24;26.73;;;10.33;;
25715;SDS011;13573;50.936;4.328;2023-02-20T07:48:50;25.63;;;10.13;;
25715;SDS011;13573;50.936;4.328;2023-02-20T07:51:18;27.90;;;10.33;;
25715;SDS011;13573;50.936;4.328;2023-02-20T07:53:46;20.40;;;9.60;;
25715;SDS011;13573;50.936;4.328;2023-02-20T07:56:15;25.07;;;9.83;;
25715;SDS011;13573;50.936;4.328;2023-02-20T07:58:42;21.60;;;8.77;;
25715;SDS011;13573;50.936;4.328;2023-02-20T08:01:08;19.23;;;9.93;;
25715;SDS011;13573;50.936;4.328;2023-02-20T08:03:35;20.77;;;8.90;;
25715;SDS011;13573;50.936;4.328;2023-02-20T08:06:02;18.50;;;8.00;;
25715;SDS011;13573;50.936;4.328;2023-02-20T08:08:29;30.37;;;9.27;;
25715;SDS011;13573;50.936;4.328;2023-02-20T08:10:56;22.73;;;9.13;;
25715;SDS011;13573;50.936;4.328;2023-02-20T08:13:23;20.47;;;8.03;;
25715;SDS011;13573;50.936;4.328;2023-02-20T08:15:50;22.10;;;8.33;;
25715;SDS011;13573;50.936;4.328;2023-02-20T08:18:16;19.80;;;8.67;;
25715;SDS011;13573;50.936;4.328;2023-02-20T08:20:43;24.20;;;7.70;;
25715;SDS011;13573;50.936;4.328;2023-02-20T08:23:15;24.23;;;8.93;;
25715;SDS011;13573;50.936;4.328;2023-02-20T08:25:43;21.73;;;8.00;;
25715;SDS011;13573;50.936;4.328;2023-02-20T08:28:10;22.07;;;7.97;;
25715;SDS011;13573;50.936;4.328;2023-02-20T08:30:37;25.10;;;7.70;;
25715;SDS011;13573;50.936;4.328;2023-02-20T08:33:03;19.53;;;8.27;;
25715;SDS011;13573;50.936;4.328;2023-02-20T08:35:31;23.57;;;8.33;;
25715;SDS011;13573;50.936;4.328;2023-02-20T08:38:01;33.70;;;9.57;;
25715;SDS011;13573;50.936;4.328;2023-02-20T08:40:29;20.00;;;7.93;;
25715;SDS011;13573;50.936;4.328;2023-02-20T08:42:56;17.83;;;7.50;;
25715;SDS011;13573;50.936;4.328;2023-02-20T08:45:24;18.40;;;7.27;;
25715;SDS011;13573;50.936;4.328;2023-02-20T08:47:50;22.57;;;7.67;;
25715;SDS011;13573;50.936;4.328;2023-02-20T08:50:17;26.40;;;7.77;;
25715;SDS011;13573;50.936;4.328;2023-02-20T08:52:44;22.37;;;7.20;;
25715;SDS011;13573;50.936;4.328;2023-02-20T08:55:12;22.00;;;7.73;;
25715;SDS011;13573;50.936;4.328;2023-02-20T08:57:41;17.73;;;7.07;;
25715;SDS011;13573;50.936;4.328;2023-02-20T09:00:09;19.37;;;7.37;;
25715;SDS011;13573;50.936;4.328;2023-02-20T09:02:37;20.40;;;7.20;;
25715;SDS011;13573;50.936;4.328;2023-02-20T09:05:04;24.70;;;6.77;;
25715;SDS011;13573;50.936;4.328;2023-02-20T09:07:32;17.47;;;6.40;;
25715;SDS011;13573;50.936;4.328;2023-02-20T09:10:00;19.73;;;7.20;;
25715;SDS011;13573;50.936;4.328;2023-02-20T09:12:26;20.17;;;7.20;;
25715;SDS011;13573;50.936;4.328;2023-02-20T09:14:53;23.90;;;7.57;;
25715;SDS011;13573;50.936;4.328;2023-02-20T09:17:20;19.07;;;6.90;;
25715;SDS011;13573;50.936;4.328;2023-02-20T09:19:47;21.27;;;7.37;;
25715;SDS011;13573;50.936;4.328;2023-02-20T09:22:13;18.50;;;7.77;;
25715;SDS011;13573;50.936;4.328;2023-02-20T09:24:41;21.23;;;7.60;;
25715;SDS011;13573;50.936;4.328;2023-02-20T09:27:10;25.07;;;8.37;;
25715;SDS011;13573;50.936;4.328;2023-02-20T09:29:36;24.17;;;7.77;;
25715;SDS011;13573;50.936;4.328;2023-02-20T09:32:05;21.87;;;8.30;;
25715;SDS011;13573;50.936;4.328;2023-02-20T09:34:32;21.57;;;8.17;;
25715;SDS011;13573;50.936;4.328;2023-02-20T09:36:58;19.90;;;7.13;;
25715;SDS011;13573;50.936;4.328;2023-02-20T09:39:26;23.37;;;7.87;;
25715;SDS011;13573;50.936;4.328;2023-02-20T09:42:29;21.63;;;7.77;;
25715;SDS011;13573;50.936;4.328;2023-02-20T09:44:48;15.13;;;6.60;;
25715;SDS011;13573;50.936;4.328;2023-02-20T09:47:25;25.17;;;8.97;;
25715;SDS011;13573;50.936;4.328;2023-02-20T09:49:55;20.90;;;7.27;;
25715;SDS011;13573;50.936;4.328;2023-02-20T09:52:24;19.97;;;7.73;;
25715;SDS011;13573;50.936;4.328;2023-02-20T09:54:53;23.83;;;9.73;;
25715;SDS011;13573;50.936;4.328;2023-02-20T09:57:25;24.13;;;10.03;;
25715;SDS011;13573;50.936;4.328;2023-02-20T09:59:52;26.13;;;11.40;;
25715;SDS011;13573;50.936;4.328;2023-02-20T10:02:25;24.67;;;9.30;;
25715;SDS011;13573;50.936;4.328;2023-02-20T10:04:58;21.57;;;7.93;;
25715;SDS011;13573;50.936;4.328;2023-02-20T10:07:33;19.03;;;7.37;;
25715;SDS011;13573;50.936;4.328;2023-02-20T10:10:16;22.20;;;8.00;;
25715;SDS011;13573;50.936;4.328;2023-02-20T10:13:04;21.37;;;8.70;;
25715;SDS011;13573;50.936;4.328;2023-02-20T10:15:54;22.27;;;7.40;;
25715;SDS011;13573;50.936;4.328;2023-02-20T10:18:46;19.90;;;7.70;;
25715;SDS011;13573;50.936;4.328;2023-02-20T10:21:27;17.20;;;7.70;;
25715;SDS011;13573;50.936;4.328;2023-02-20T10:23:50;29.53;;;7.80;;
25715;SDS011;13573;50.936;4.328;2023-02-20T10:26:21;21.83;;;7.80;;
25715;SDS011;13573;50.936;4.328;2023-02-20T10:28:53;21.57;;;8.20;;
25715;SDS011;13573;50.936;4.328;2023-02-20T10:32:30;22.20;;;8.07;;
25715;SDS011;13573;50.936;4.328;2023-02-20T10:34:10;22.93;;;8.00;;
25715;SDS011;13573;50.936;4.328;2023-02-20T10:36:39;23.30;;;8.60;;
25715;SDS011;13573;50.936;4.328;2023-02-20T10:39:10;19.23;;;8.33;;
25715;SDS011;13573;50.936;4.328;2023-02-20T10:41:59;17.27;;;8.30;;
25715;SDS011;13573;50.936;4.328;2023-02-20T10:44:27;23.83;;;8.37;;
25715;SDS011;13573;50.936;4.328;2023-02-20T10:47:05;36.67;;;7.70;;
25715;SDS011;13573;50.936;4.328;2023-02-20T10:49:43;21.53;;;8.20;;
25715;SDS011;13573;50.936;4.328;2023-02-20T10:52:19;20.00;;;7.90;;
25715;SDS011;13573;50.936;4.328;2023-02-20T10:54:50;17.70;;;7.93;;
25715;SDS011;13573;50.936;4.328;2023-02-20T10:57:21;22.77;;;8.40;;
25715;SDS011;13573;50.936;4.328;2023-02-20T10:59:58;19.60;;;8.37;;
25715;SDS011;13573;50.936;4.328;2023-02-20T11:02:32;18.30;;;7.77;;
25715;SDS011;13573;50.936;4.328;2023-02-20T11:05:02;21.00;;;7.67;;
25715;SDS011;13573;50.936;4.328;2023-02-20T11:07:30;18.43;;;8.20;;
25715;SDS011;13573;50.936;4.328;2023-02-20T11:09:57;21.73;;;7.70;;
25715;SDS011;13573;50.936;4.328;2023-02-20T11:12:26;17.73;;;7.63;;
25715;SDS011;13573;50.936;4.328;2023-02-20T11:14:56;18.30;;;7.00;;
25715;SDS011;13573;50.936;4.328;2023-02-20T11:17:28;16.70;;;7.00;;
25715;SDS011;13573;50.936;4.328;2023-02-20T11:19:55;16.87;;;6.70;;
25715;SDS011;13573;50.936;4.328;2023-02-20T11:27:41;21.00;;;7.53;;
25715;SDS011;13573;50.936;4.328;2023-02-20T11:32:43;18.90;;;6.90;;
25715;SDS011;13573;50.936;4.328;2023-02-20T11:35:20;25.40;;;7.50;;
25715;SDS011;13573;50.936;4.328;2023-02-20T11:37:48;16.83;;;6.73;;
25715;SDS011;13573;50.936;4.328;2023-02-20T11:40:26;16.53;;;6.37;;
25715;SDS011;13573;50.936;4.328;2023-02-20T11:43:07;13.87;;;6.53;;
25715;SDS011;13573;50.936;4.328;2023-02-20T11:45:30;17.40;;;6.83;;
25715;SDS011;13573;50.936;4.328;2023-02-20T11:48:05;16.20;;;6.37;;
25715;SDS011;13573;50.936;4.328;2023-02-20T11:50:37;19.40;;;6.70;;
25715;SDS011;13573;50.936;4.328;2023-02-20T11:53:16;17.33;;;5.93;;
25715;SDS011;13573;50.936;4.328;2023-02-20T11:55:43;18.17;;;6.53;;
25715;SDS011;13573;50.936;4.328;2023-02-20T12:00:45;19.90;;;7.10;;
25715;SDS011;13573;50.936;4.328;2023-02-20T12:03:12;10.77;;;5.70;;
25715;SDS011;13573;50.936;4.328;2023-02-20T12:05:43;20.97;;;6.73;;
25715;SDS011;13573;50.936;4.328;2023-02-20T12:10:51;17.83;;;5.80;;
25715;SDS011;13573;50.936;4.328;2023-02-20T12:13:18;19.07;;;5.93;;
25715;SDS011;13573;50.936;4.328;2023-02-20T12:15:47;19.73;;;6.40;;
25715;SDS011;13573;50.936;4.328;2023-02-20T12:18:25;18.33;;;5.90;;
25715;SDS011;13573;50.936;4.328;2023-02-20T12:21:07;13.60;;;5.40;;
25715;SDS011;13573;50.936;4.328;2023-02-20T12:23:42;17.73;;;6.43;;
25715;SDS011;13573;50.936;4.328;2023-02-20T12:26:11;17.77;;;5.73;;
25715;SDS011;13573;50.936;4.328;2023-02-20T12:29:00;15.73;;;6.03;;
25715;SDS011;13573;50.936;4.328;2023-02-20T12:31:37;12.27;;;6.03;;
25715;SDS011;13573;50.936;4.328;2023-02-20T12:34:16;10.40;;;5.30;;
25715;SDS011;13573;50.936;4.328;2023-02-20T12:36:45;14.37;;;5.33;;
25715;SDS011;13573;50.936;4.328;2023-02-20T12:39:29;15.60;;;5.97;;
25715;SDS011;13573;50.936;4.328;2023-02-20T12:42:05;19.30;;;6.10;;
25715;SDS011;13573;50.936;4.328;2023-02-20T12:44:41;13.07;;;5.07;;
25715;SDS011;13573;50.936;4.328;2023-02-20T12:47:15;18.37;;;5.60;;
25715;SDS011;13573;50.936;4.328;2023-02-20T12:52:38;14.27;;;6.17;;
25715;SDS011;13573;50.936;4.328;2023-02-20T12:55:28;15.47;;;5.80;;
25715;SDS011;13573;50.936;4.328;2023-02-20T13:00:46;13.80;;;5.90;;
25715;SDS011;13573;50.936;4.328;2023-02-20T13:03:18;16.67;;;6.27;;
25715;SDS011;13573;50.936;4.328;2023-02-20T13:05:48;12.97;;;7.17;;
25715;SDS011;13573;50.936;4.328;2023-02-20T13:08:17;18.60;;;6.47;;
25715;SDS011;13573;50.936;4.328;2023-02-20T13:10:55;17.27;;;7.10;;
25715;SDS011;13573;50.936;4.328;2023-02-20T13:13:22;14.67;;;6.77;;
25715;SDS011;13573;50.936;4.328;2023-02-20T13:15:55;16.90;;;7.10;;
25715;SDS011;13573;50.936;4.328;2023-02-20T13:18:41;16.17;;;7.13;;
25715;SDS011;13573;50.936;4.328;2023-02-20T13:21:13;12.73;;;6.40;;
25715;SDS011;13573;50.936;4.328;2023-02-20T13:23:42;13.67;;;7.00;;
25715;SDS011;13573;50.936;4.328;2023-02-20T13:29:11;17.50;;;6.47;;
25715;SDS011;13573;50.936;4.328;2023-02-20T13:31:46;14.13;;;6.70;;
25715;SDS011;13573;50.936;4.328;2023-02-20T13:34:26;11.43;;;6.17;;
25715;SDS011;13573;50.936;4.328;2023-02-20T13:36:56;14.47;;;6.30;;
25715;SDS011;13573;50.936;4.328;2023-02-20T13:39:25;16.77;;;6.23;;
25715;SDS011;13573;50.936;4.328;2023-02-20T13:42:04;15.20;;;6.50;;
25715;SDS011;13573;50.936;4.328;2023-02-20T13:44:39;16.47;;;6.67;;
25715;SDS011;13573;50.936;4.328;2023-02-20T13:49:56;14.40;;;6.47;;
25715;SDS011;13573;50.936;4.328;2023-02-20T13:52:32;23.67;;;7.40;;
25715;SDS011;13573;50.936;4.328;2023-02-20T13:55:13;20.83;;;7.10;;
25715;SDS011;13573;50.936;4.328;2023-02-20T13:57:47;10.20;;;6.47;;
25715;SDS011;13573;50.936;4.328;2023-02-20T14:00:23;19.57;;;7.40;;
25715;SDS011;13573;50.936;4.328;2023-02-20T14:02:55;22.20;;;6.93;;
25715;SDS011;13573;50.936;4.328;2023-02-20T14:05:25;13.97;;;6.83;;
25715;SDS011;13573;50.936;4.328;2023-02-20T14:07:55;14.07;;;6.77;;
25715;SDS011;13573;50.936;4.328;2023-02-20T14:10:31;16.83;;;7.07;;
25715;SDS011;13573;50.936;4.328;2023-02-20T14:13:05;12.40;;;6.37;;
25715;SDS011;13573;50.936;4.328;2023-02-20T14:15:49;28.83;;;7.77;;
25715;SDS011;13573;50.936;4.328;2023-02-20T14:18:20;15.00;;;6.77;;
25715;SDS011;13573;50.936;4.328;2023-02-20T14:21:03;13.20;;;7.93;;
25715;SDS011;13573;50.936;4.328;2023-02-20T14:23:37;18.37;;;8.10;;
25715;SDS011;13573;50.936;4.328;2023-02-20T14:26:17;18.03;;;8.47;;
25715;SDS011;13573;50.936;4.328;2023-02-20T14:28:33;13.77;;;7.33;;
25715;SDS011;13573;50.936;4.328;2023-02-20T14:31:05;12.50;;;7.30;;
25715;SDS011;13573;50.936;4.328;2023-02-20T14:33:34;15.97;;;7.60;;
25715;SDS011;13573;50.936;4.328;2023-02-20T14:36:12;16.77;;;6.80;;
25715;SDS011;13573;50.936;4.328;2023-02-20T14:38:54;19.73;;;7.13;;
25715;SDS011;13573;50.936;4.328;2023-02-20T14:41:34;16.97;;;7.30;;
25715;SDS011;13573;50.936;4.328;2023-02-20T14:44:03;10.27;;;6.50;;
25715;SDS011;13573;50.936;4.328;2023-02-20T14:46:33;13.63;;;6.50;;
25715;SDS011;13573;50.936;4.328;2023-02-20T14:49:03;18.67;;;7.17;;
25715;SDS011;13573;50.936;4.328;2023-02-20T14:51:33;16.73;;;7.40;;
25715;SDS011;13573;50.936;4.328;2023-02-20T14:54:02;15.90;;;7.40;;
25715;SDS011;13573;50.936;4.328;2023-02-20T14:56:35;22.70;;;8.13;;
25715;SDS011;13573;50.936;4.328;2023-02-20T14:59:35;15.07;;;8.30;;
25715;SDS011;13573;50.936;4.328;2023-02-20T15:02:20;18.60;;;8.50;;
25715;SDS011;13573;50.936;4.328;2023-02-20T15:05:05;17.83;;;9.03;;
25715;SDS011;13573;50.936;4.328;2023-02-20T15:07:34;16.67;;;8.70;;
25715;SDS011;13573;50.936;4.328;2023-02-20T15:10:05;18.27;;;8.57;;
25715;SDS011;13573;50.936;4.328;2023-02-20T15:12:36;20.90;;;9.27;;
25715;SDS011;13573;50.936;4.328;2023-02-20T15:15:07;18.47;;;9.43;;
25715;SDS011;13573;50.936;4.328;2023-02-20T15:17:40;21.43;;;9.03;;
25715;SDS011;13573;50.936;4.328;2023-02-20T15:22:45;17.20;;;9.30;;
25715;SDS011;13573;50.936;4.328;2023-02-20T15:25:19;18.90;;;8.47;;